Time;durP1;ratioP1;P1;durP2;ratioP2;P2;SDS_P1;SDS_P2;PMS_P1;PMS_P2;Temp;Humidity;BMP_temperature;BMP_pressure;BME280_temperature;BME280_humidity;BME280_pressure;Samples;Min_cycle;Max_cycle;Signal;HPM_P1;HPM_P2
2022/12/17 13:08:20;;;;;;;27.97;18.07;;;0.60;99.90;;;;;;5071119;28;20204;-55
2022/12/17 13:10:48;;;;;;;28.40;17.83;;;0.60;99.90;;;;;;5070684;28;20232;-54
2022/12/17 13:13:27;;;;;;;28.83;18.03;;;0.60;99.90;;;;;;5070923;28;20688;-57
2022/12/17 13:15:57;;;;;;;27.40;17.67;;;0.60;99.90;;;;;;5070488;28;20529;-55
2022/12/17 13:18:31;;;;;;;27.13;18.07;;;0.60;99.90;;;;;;5070859;28;20213;-54
2022/12/17 13:21:00;;;;;;;29.83;18.43;;;0.70;99.90;;;;;;5071220;28;20200;-54
2022/12/17 13:23:33;;;;;;;27.80;18.33;;;0.80;99.90;;;;;;5070646;28;20216;-54
2022/12/17 13:26:14;;;;;;;26.00;17.80;;;0.90;99.90;;;;;;5071189;28;20205;-57
2022/12/17 13:28:41;;;;;;;30.40;18.30;;;1.00;99.90;;;;;;5070977;28;20211;-57
2022/12/17 13:31:17;;;;;;;34.70;20.67;;;1.10;99.90;;;;;;5070780;28;20239;-57
2022/12/17 13:33:50;;;;;;;30.60;19.53;;;1.20;99.90;;;;;;5070535;28;20692;-57
2022/12/17 13:36:25;;;;;;;29.30;18.53;;;1.30;99.90;;;;;;5070254;28;20592;-57
2022/12/17 13:38:59;;;;;;;30.50;19.33;;;1.20;99.90;;;;;;5070764;28;20200;-57
2022/12/17 13:41:29;;;;;;;29.03;19.10;;;1.20;99.90;;;;;;5070595;28;20239;-57
2022/12/17 13:43:59;;;;;;;30.87;18.90;;;1.30;99.90;;;;;;5070354;28;20225;-57
2022/12/17 13:46:27;;;;;;;33.03;18.43;;;1.30;99.90;;;;;;5070165;28;20216;-59
2022/12/17 13:48:58;;;;;;;26.57;17.87;;;1.20;99.90;;;;;;5070181;28;20688;-58
2022/12/17 13:51:27;;;;;;;29.20;18.17;;;1.40;99.90;;;;;;5070425;28;20220;-59
2022/12/17 13:53:56;;;;;;;28.07;17.80;;;1.10;99.90;;;;;;5069863;28;20905;-59
2022/12/17 13:56:25;;;;;;;30.87;20.10;;;0.90;99.90;;;;;;5069609;28;20865;-60
2022/12/17 13:58:53;;;;;;;28.63;19.60;;;0.90;99.90;;;;;;5066754;28;20216;-58
2022/12/17 14:01:20;;;;;;;29.93;19.20;;;0.80;99.90;;;;;;5070104;28;20665;-58
2022/12/17 14:03:52;;;;;;;31.90;20.00;;;0.80;99.90;;;;;;5070290;28;20437;-57
2022/12/17 14:06:22;;;;;;;29.80;18.93;;;0.80;99.90;;;;;;5069521;28;20722;-58
2022/12/17 14:08:52;;;;;;;30.37;20.17;;;0.70;99.90;;;;;;5070142;28;20209;-58
2022/12/17 14:14:08;;;;;;;32.47;18.63;;;0.50;99.90;;;;;;5072747;28;20633;-57
2022/12/17 14:16:34;;;;;;;31.57;20.43;;;0.40;99.90;;;;;;5073893;28;20583;-57
2022/12/17 14:19:01;;;;;;;31.37;20.37;;;0.30;99.90;;;;;;5074136;28;20209;-57
2022/12/17 14:21:30;;;;;;;30.03;19.50;;;0.40;99.90;;;;;;5074061;28;20579;-57
2022/12/17 14:23:57;;;;;;;31.10;19.67;;;0.30;99.90;;;;;;5073569;28;20228;-57
2022/12/17 14:26:24;;;;;;;30.90;19.60;;;0.30;99.90;;;;;;5073464;28;20209;-57
2022/12/17 14:28:53;;;;;;;34.40;21.53;;;0.30;99.90;;;;;;5074329;28;20580;-57
2022/12/17 14:31:23;;;;;;;34.70;21.23;;;0.30;99.90;;;;;;5073952;28;20221;-57
2022/12/17 14:34:05;;;;;;;32.67;20.53;;;0.30;99.90;;;;;;5074481;28;20212;-57
2022/12/17 14:36:35;;;;;;;35.03;20.67;;;0.20;99.90;;;;;;5073688;28;20201;-57
2022/12/17 14:39:09;;;;;;;33.10;20.30;;;0.30;99.90;;;;;;5073997;28;20296;-57
2022/12/17 14:44:26;;;;;;;34.17;21.17;;;0.30;99.90;;;;;;5072823;28;20211;-57
2022/12/17 14:47:06;;;;;;;34.37;20.57;;;0.20;99.90;;;;;;5073782;28;20201;-57
2022/12/17 14:49:33;;;;;;;33.70;20.23;;;0.20;99.90;;;;;;5073348;28;20207;-57
2022/12/17 14:52:12;;;;;;;33.73;21.07;;;0.20;99.90;;;;;;5073141;28;20692;-57
2022/12/17 14:54:45;;;;;;;38.73;21.10;;;0.20;99.90;;;;;;5072552;28;20274;-57
2022/12/17 14:57:20;;;;;;;38.87;22.83;;;0.20;99.90;;;;;;5073390;28;20201;-57
2022/12/17 14:59:46;;;;;;;36.03;21.40;;;0.20;99.90;;;;;;5073421;28;20215;-57
2022/12/17 15:02:22;;;;;;;33.37;20.60;;;0.10;99.90;;;;;;5072802;28;20220;-57
2022/12/17 15:04:49;;;;;;;31.00;18.73;;;0.10;99.90;;;;;;5071929;28;20228;-57
2022/12/17 15:07:24;;;;;;;33.30;21.07;;;0.00;99.90;;;;;;5073169;28;20201;-57
2022/12/17 15:09:51;;;;;;;37.50;20.67;;;-0.10;99.90;;;;;;5073300;28;20232;-57
2022/12/17 15:12:18;;;;;;;35.63;20.83;;;-0.10;99.90;;;;;;5072920;28;20308;-57
2022/12/17 15:14:45;;;;;;;36.47;20.90;;;-0.20;99.90;;;;;;5071742;28;20236;-57
2022/12/17 15:17:12;;;;;;;41.53;24.30;;;-0.30;99.90;;;;;;5073039;28;20259;-57
2022/12/17 15:19:39;;;;;;;37.33;23.50;;;-0.40;99.90;;;;;;5073084;28;20212;-57
2022/12/17 15:22:06;;;;;;;33.37;20.83;;;-0.50;99.90;;;;;;5072832;28;20618;-57
2022/12/17 15:24:34;;;;;;;30.63;18.97;;;-0.50;99.90;;;;;;5071215;28;20751;-57
2022/12/17 15:27:01;;;;;;;34.13;20.77;;;-0.60;99.90;;;;;;5072519;28;20205;-56
2022/12/17 15:29:27;;;;;;;33.90;20.83;;;-0.70;99.90;;;;;;5072582;28;20250;-57
2022/12/17 15:31:54;;;;;;;30.80;19.33;;;-0.70;99.90;;;;;;5072050;28;20747;-57
2022/12/17 15:34:21;;;;;;;32.27;18.80;;;-0.80;99.90;;;;;;5071680;28;20228;-57
2022/12/17 15:36:48;;;;;;;31.13;20.03;;;-0.90;99.90;;;;;;5072382;28;20236;-56
2022/12/17 15:39:14;;;;;;;32.33;19.27;;;-1.00;99.90;;;;;;5072272;28;20213;-56
2022/12/17 15:44:27;;;;;;;32.30;20.03;;;-1.20;99.90;;;;;;5071267;28;20354;-57
2022/12/17 15:46:53;;;;;;;37.30;22.97;;;-1.20;99.90;;;;;;5072251;28;20688;-57
2022/12/17 15:49:20;;;;;;;34.67;20.97;;;-1.30;99.90;;;;;;5072746;28;20209;-57
2022/12/17 15:51:47;;;;;;;32.87;19.17;;;-1.30;99.90;;;;;;5072044;28;20695;-57
2022/12/17 15:54:14;;;;;;;33.43;19.70;;;-1.40;99.90;;;;;;5071573;28;20229;-57
2022/12/17 15:56:41;;;;;;;34.57;20.23;;;-1.40;99.90;;;;;;5071294;28;20208;-61
2022/12/17 15:59:09;;;;;;;33.37;19.70;;;-1.40;99.90;;;;;;5072390;28;20213;-60
2022/12/17 16:01:36;;;;;;;30.53;19.80;;;-1.50;99.90;;;;;;5071972;28;20591;-58
2022/12/17 16:04:02;;;;;;;42.20;27.07;;;-1.50;99.90;;;;;;5071056;28;20224;-58
2022/12/17 16:06:29;;;;;;;58.30;35.23;;;-1.50;99.90;;;;;;5071318;28;20212;-62
2022/12/17 16:08:56;;;;;;;45.97;28.97;;;-1.60;99.90;;;;;;5071613;28;20681;-61
2022/12/17 16:11:22;;;;;;;65.60;39.50;;;-1.60;99.90;;;;;;5071615;28;20212;-59
2022/12/17 16:13:53;;;;;;;61.13;36.73;;;-1.70;99.90;;;;;;5071545;28;20558;-59
2022/12/17 16:16:22;;;;;;;64.87;39.37;;;-1.80;99.90;;;;;;5070970;28;20258;-60
2022/12/17 16:18:49;;;;;;;70.90;43.63;;;-1.90;99.90;;;;;;5071404;28;20213;-59
2022/12/17 16:21:16;;;;;;;36.60;22.00;;;-2.00;99.90;;;;;;5071650;28;20220;-59
2022/12/17 16:23:42;;;;;;;41.23;25.30;;;-2.10;99.90;;;;;;5071071;28;20315;-59
2022/12/17 16:26:10;;;;;;;47.67;28.03;;;-2.20;99.90;;;;;;5070858;28;20205;-56
2022/12/17 16:28:37;;;;;;;42.13;25.10;;;-2.30;99.90;;;;;;5072641;28;20204;-56
2022/12/17 16:31:06;;;;;;;30.87;19.03;;;-2.40;99.90;;;;;;5072283;28;20220;-56
2022/12/17 16:33:35;;;;;;;32.00;20.10;;;-2.40;99.90;;;;;;5072434;28;20248;-57
2022/12/17 16:36:02;;;;;;;41.10;24.00;;;-2.50;99.90;;;;;;5071082;28;20209;-56
2022/12/17 16:38:29;;;;;;;46.83;25.63;;;-2.60;99.90;;;;;;5072419;28;20211;-57
2022/12/17 16:40:57;;;;;;;45.27;26.77;;;-2.40;99.90;;;;;;5072416;28;20211;-56
2022/12/17 16:43:24;;;;;;;57.20;32.33;;;-2.60;99.90;;;;;;5072504;28;20216;-56
2022/12/17 16:45:52;;;;;;;57.93;30.87;;;-2.60;99.90;;;;;;5071817;28;20316;-57
2022/12/17 16:48:19;;;;;;;49.90;27.13;;;-2.70;99.90;;;;;;5072327;28;20209;-57
2022/12/17 16:50:48;;;;;;;45.70;25.73;;;-2.90;99.90;;;;;;5071929;28;20672;-56
2022/12/17 16:53:16;;;;;;;48.77;26.37;;;-3.00;99.90;;;;;;5072202;28;20232;-56
2022/12/17 16:55:45;;;;;;;43.63;24.93;;;-3.10;99.90;;;;;;5071397;28;20605;-56
2022/12/17 16:58:12;;;;;;;46.23;25.93;;;-3.20;99.90;;;;;;5072106;28;20676;-56
2022/12/17 17:00:40;;;;;;;47.37;27.47;;;-3.40;99.90;;;;;;5072144;28;20212;-56
2022/12/17 17:03:08;;;;;;;49.83;30.53;;;-3.50;99.90;;;;;;5072352;28;20197;-57
2022/12/17 17:05:37;;;;;;;49.23;29.00;;;-3.50;99.90;;;;;;5071730;28;20228;-57
2022/12/17 17:08:05;;;;;;;48.07;26.70;;;-3.60;99.90;;;;;;5072951;28;20205;-57
2022/12/17 17:10:35;;;;;;;46.10;25.23;;;-3.70;99.90;;;;;;5072410;28;20209;-57
2022/12/17 17:13:03;;;;;;;42.60;25.40;;;-3.90;99.90;;;;;;5072413;28;20228;-57
2022/12/17 17:15:29;;;;;;;47.63;26.77;;;-4.00;99.90;;;;;;5071675;28;20229;-58
2022/12/17 17:17:56;;;;;;;49.23;27.17;;;-4.10;99.90;;;;;;5072543;28;20216;-58
2022/12/17 17:20:23;;;;;;;44.03;25.50;;;-4.10;99.90;;;;;;5072577;28;20637;-56
2022/12/17 17:22:50;;;;;;;42.70;25.03;;;-4.10;99.90;;;;;;5072715;28;20631;-56
2022/12/17 17:25:18;;;;;;;45.60;25.50;;;-4.10;99.90;;;;;;5071357;28;20229;-59
2022/12/17 17:27:44;;;;;;;45.97;24.83;;;-4.10;99.90;;;;;;5072421;28;20447;-56
2022/12/17 17:30:12;;;;;;;46.00;24.77;;;-4.20;99.90;;;;;;5071881;28;20696;-56
2022/12/17 17:32:39;;;;;;;42.37;24.00;;;-4.30;99.90;;;;;;5071926;28;20592;-56
2022/12/17 17:35:06;;;;;;;43.63;25.20;;;-4.40;99.90;;;;;;5071642;28;20225;-57
2022/12/17 17:37:33;;;;;;;45.70;25.57;;;-4.40;99.90;;;;;;5072383;28;20575;-56
2022/12/17 17:40:00;;;;;;;51.97;26.80;;;-4.50;99.90;;;;;;5071793;28;20212;-56
2022/12/17 17:42:28;;;;;;;46.60;26.03;;;-4.40;99.90;;;;;;5071818;28;20201;-56
2022/12/17 17:44:55;;;;;;;46.83;26.80;;;-4.40;99.90;;;;;;5070863;28;20239;-56
2022/12/17 17:47:22;;;;;;;50.17;26.90;;;-4.30;99.90;;;;;;5074392;28;20211;-56
2022/12/17 17:49:48;;;;;;;49.17;28.03;;;-4.20;99.90;;;;;;5075980;28;20205;-57
2022/12/17 17:52:16;;;;;;;48.10;26.67;;;-4.20;99.90;;;;;;5075775;28;20212;-56
2022/12/17 17:54:43;;;;;;;47.77;27.07;;;-4.10;99.90;;;;;;5075062;28;20228;-56
2022/12/17 17:57:10;;;;;;;50.70;28.87;;;-4.10;99.90;;;;;;5075787;28;20209;-56
2022/12/17 17:59:39;;;;;;;46.33;27.63;;;-4.10;99.90;;;;;;5075466;28;20209;-56
2022/12/17 18:02:07;;;;;;;52.93;28.67;;;-4.00;99.90;;;;;;5075232;28;20742;-57
2022/12/17 18:04:34;;;;;;;46.00;24.73;;;-4.00;99.90;;;;;;5074939;28;20229;-56
2022/12/17 18:07:00;;;;;;;41.80;24.57;;;-3.90;99.90;;;;;;5075407;28;20208;-57
2022/12/17 18:09:27;;;;;;;42.70;25.13;;;-4.00;99.90;;;;;;5075062;28;20208;-56
2022/12/17 18:11:54;;;;;;;59.67;32.83;;;-3.90;99.90;;;;;;5075016;28;20201;-55
2022/12/17 18:14:19;;;;;;;49.50;27.40;;;-3.90;99.90;;;;;;5074620;28;20709;-56
2022/12/17 18:16:48;;;;;;;46.67;25.53;;;-3.80;99.90;;;;;;5074387;28;20208;-56
2022/12/17 18:19:16;;;;;;;42.60;24.77;;;-3.80;99.90;;;;;;5075030;28;20216;-57
2022/12/17 18:21:43;;;;;;;42.33;24.67;;;-3.70;99.90;;;;;;5074854;28;20205;-56
2022/12/17 18:24:13;;;;;;;43.00;23.33;;;-3.70;99.90;;;;;;5074523;28;20232;-56
2022/12/17 18:26:42;;;;;;;37.43;21.90;;;-3.70;99.90;;;;;;5074018;28;20791;-57
2022/12/17 18:29:10;;;;;;;39.10;22.87;;;-3.70;99.90;;;;;;5075015;28;20205;-56
2022/12/17 18:31:37;;;;;;;55.93;32.50;;;-3.70;99.90;;;;;;5074748;28;20212;-56
2022/12/17 18:34:12;;;;;;;67.80;37.17;;;-3.70;99.90;;;;;;5074841;28;20235;-57
2022/12/17 18:36:41;;;;;;;70.13;36.40;;;-3.80;99.90;;;;;;5074260;28;20212;-57
2022/12/17 18:39:11;;;;;;;66.07;34.87;;;-3.80;99.90;;;;;;5074799;28;20209;-57
2022/12/17 18:44:23;;;;;;;56.90;31.73;;;-4.00;99.90;;;;;;5074501;28;20231;-57
2022/12/17 18:46:50;;;;;;;56.33;31.07;;;-4.10;99.90;;;;;;5073934;28;20201;-57
2022/12/17 18:49:19;;;;;;;49.83;29.57;;;-4.10;99.90;;;;;;5074753;28;20211;-58
2022/12/17 18:51:48;;;;;;;55.63;29.93;;;-4.30;99.90;;;;;;5074440;28;20561;-58
2022/12/17 18:54:17;;;;;;;54.70;29.23;;;-4.30;99.90;;;;;;5074371;28;20225;-57
2022/12/17 18:56:44;;;;;;;57.97;30.03;;;-4.30;99.90;;;;;;5073969;28;20205;-58
2022/12/17 18:59:13;;;;;;;49.90;29.57;;;-4.40;99.90;;;;;;5073975;28;20205;-58
2022/12/17 19:01:40;;;;;;;56.13;29.27;;;-4.40;99.90;;;;;;5074653;28;20718;-57
2022/12/17 19:04:08;;;;;;;57.67;31.87;;;-4.40;99.90;;;;;;5074256;28;20232;-59
2022/12/17 19:06:37;;;;;;;62.07;34.07;;;-4.40;99.90;;;;;;5074054;28;20205;-57
2022/12/17 19:09:05;;;;;;;73.63;38.50;;;-4.30;99.90;;;;;;5074481;28;20583;-58
2022/12/17 19:11:33;;;;;;;60.73;33.50;;;-4.30;99.90;;;;;;5074402;28;20209;-58
2022/12/17 19:14:00;;;;;;;65.43;36.00;;;-4.30;99.90;;;;;;5074139;28;20734;-58
2022/12/17 19:16:28;;;;;;;68.97;35.90;;;-4.30;99.90;;;;;;5073371;28;20212;-57
2022/12/17 19:18:57;;;;;;;73.47;41.90;;;-4.30;99.90;;;;;;5074289;28;20201;-58
2022/12/17 19:21:24;;;;;;;60.17;31.53;;;-4.20;99.90;;;;;;5074298;28;20200;-58
2022/12/17 19:23:58;;;;;;;54.93;30.37;;;-4.20;99.90;;;;;;5074713;28;20225;-56
2022/12/17 19:26:26;;;;;;;58.90;29.77;;;-4.20;99.90;;;;;;5073472;28;20204;-57
2022/12/17 19:28:54;;;;;;;51.93;26.53;;;-4.10;99.90;;;;;;5073995;28;20205;-57
2022/12/17 19:31:23;;;;;;;43.37;25.23;;;-4.10;99.90;;;;;;5073806;28;20680;-59
2022/12/17 19:33:53;;;;;;;47.43;27.03;;;-4.20;99.90;;;;;;5073982;28;20232;-58
2022/12/17 19:36:21;;;;;;;44.07;24.80;;;-4.20;99.90;;;;;;5073141;28;20209;-59
2022/12/17 19:38:51;;;;;;;43.43;25.40;;;-4.30;99.90;;;;;;5073791;28;20216;-56
2022/12/17 19:41:19;;;;;;;54.00;28.83;;;-4.40;99.90;;;;;;5073386;28;20200;-57
2022/12/17 19:43:48;;;;;;;52.13;28.87;;;-4.50;99.90;;;;;;5073064;28;20221;-59
2022/12/17 19:46:17;;;;;;;55.03;28.37;;;-4.50;99.90;;;;;;5072936;28;20212;-58
2022/12/17 19:48:45;;;;;;;78.43;39.23;;;-4.50;99.90;;;;;;5073619;28;20240;-59
2022/12/17 19:51:14;;;;;;;99.57;49.60;;;-4.40;99.90;;;;;;5073531;28;20813;-57
2022/12/17 19:53:43;;;;;;;71.60;36.17;;;-4.40;99.90;;;;;;5073404;28;20205;-57
2022/12/17 19:56:11;;;;;;;67.70;36.53;;;-4.40;99.90;;;;;;5072695;28;20204;-56
2022/12/17 19:58:40;;;;;;;64.23;35.00;;;-4.30;99.90;;;;;;5073462;28;20212;-63
2022/12/17 20:01:07;;;;;;;49.07;28.30;;;-4.30;99.90;;;;;;5073497;28;20213;-57
2022/12/17 20:03:34;;;;;;;50.23;28.23;;;-4.30;99.90;;;;;;5073340;28;20607;-58
2022/12/17 20:06:01;;;;;;;53.17;29.37;;;-4.30;99.90;;;;;;5072379;28;20587;-57
2022/12/17 20:08:28;;;;;;;39.70;23.27;;;-4.30;99.90;;;;;;5072882;28;20215;-60
2022/12/17 20:10:55;;;;;;;45.27;24.57;;;-4.30;99.90;;;;;;5071956;28;20209;-58
2022/12/17 20:13:22;;;;;;;63.47;35.17;;;-4.30;99.90;;;;;;5073072;28;20213;-58
2022/12/17 20:15:59;;;;;;;46.70;25.57;;;-4.40;99.90;;;;;;5072674;28;20233;-58
2022/12/17 20:18:26;;;;;;;45.77;26.03;;;-4.40;99.90;;;;;;5073090;28;20315;-58
2022/12/17 20:20:52;;;;;;;45.80;25.60;;;-4.40;99.90;;;;;;5072980;28;20209;-59
2022/12/17 20:23:19;;;;;;;46.87;26.70;;;-4.40;99.90;;;;;;5072704;28;20235;-56
2022/12/17 20:25:46;;;;;;;55.50;30.00;;;-4.40;99.90;;;;;;5071922;28;20286;-58
2022/12/17 20:28:12;;;;;;;50.27;28.43;;;-4.50;99.90;;;;;;5072913;28;20205;-58
2022/12/17 20:30:40;;;;;;;48.60;27.30;;;-4.60;99.90;;;;;;5072705;28;20245;-56
2022/12/17 20:33:08;;;;;;;55.57;29.47;;;-4.70;99.90;;;;;;5072705;28;20325;-59
2022/12/17 20:35:39;;;;;;;54.33;30.90;;;-4.80;99.90;;;;;;5071926;28;20231;-59
2022/12/17 20:38:05;;;;;;;54.20;29.20;;;-4.80;99.90;;;;;;5072521;28;20675;-57
2022/12/17 20:40:33;;;;;;;52.70;29.43;;;-4.80;99.90;;;;;;5072652;28;20208;-58
2022/12/17 20:43:00;;;;;;;54.90;30.00;;;-4.80;99.90;;;;;;5072351;28;20234;-58
2022/12/17 20:45:27;;;;;;;54.67;28.80;;;-4.80;99.90;;;;;;5071800;28;20259;-59
2022/12/17 20:47:54;;;;;;;50.93;29.53;;;-4.90;99.90;;;;;;5072302;28;20575;-57
2022/12/17 20:50:22;;;;;;;51.90;29.80;;;-5.10;99.90;;;;;;5072289;28;20205;-58
2022/12/17 20:52:48;;;;;;;54.63;28.63;;;-5.30;99.90;;;;;;5072722;28;20209;-58
2022/12/17 20:55:15;;;;;;;52.40;28.53;;;-5.40;99.90;;;;;;5071768;28;20594;-58
2022/12/17 20:57:42;;;;;;;48.37;28.47;;;-5.50;99.90;;;;;;5072127;28;20216;-58
2022/12/17 21:00:10;;;;;;;50.60;27.23;;;-5.60;99.90;;;;;;5072313;28;20201;-57
2022/12/17 21:02:37;;;;;;;52.07;28.47;;;-5.70;99.90;;;;;;5072133;28;20209;-58
2022/12/17 21:05:05;;;;;;;46.97;25.97;;;-5.80;99.90;;;;;;5071520;28;20234;-58
2022/12/17 21:07:33;;;;;;;49.87;27.90;;;-5.80;99.90;;;;;;5072298;28;20232;-59
2022/12/17 21:10:00;;;;;;;48.20;27.23;;;-5.80;99.90;;;;;;5071900;28;20204;-58
2022/12/17 21:13:27;;;;;;;53.40;28.33;;;-5.80;99.90;;;;;;5072038;28;20209;-58
2022/12/17 21:15:14;;;;;;;50.93;26.80;;;-5.90;99.90;;;;;;5071127;28;20260;-59
2022/12/17 21:17:41;;;;;;;54.83;28.80;;;-5.80;99.90;;;;;;5071835;28;20220;-59
2022/12/17 21:20:08;;;;;;;49.93;27.60;;;-5.90;99.90;;;;;;5072288;28;20236;-58
2022/12/17 21:22:36;;;;;;;54.10;28.63;;;-5.80;99.90;;;;;;5071799;28;20201;-57
2022/12/17 21:25:03;;;;;;;56.70;30.63;;;-5.80;99.90;;;;;;5071390;28;20653;-57
2022/12/17 21:27:30;;;;;;;56.37;28.13;;;-5.80;99.90;;;;;;5071933;28;20213;-58
2022/12/17 21:29:57;;;;;;;54.07;28.37;;;-5.80;99.90;;;;;;5071856;28;20205;-58
2022/12/17 21:32:23;;;;;;;51.67;27.50;;;-5.80;99.90;;;;;;5072205;28;20208;-58
2022/12/17 21:34:50;;;;;;;49.97;28.43;;;-5.80;99.90;;;;;;5072170;28;20217;-57
2022/12/17 21:37:17;;;;;;;49.03;26.53;;;-5.80;99.90;;;;;;5071350;28;20200;-57
2022/12/17 21:39:45;;;;;;;47.97;26.77;;;-5.80;99.90;;;;;;5071963;28;20326;-58
2022/12/17 21:44:56;;;;;;;46.07;24.73;;;-5.90;99.90;;;;;;5071391;28;20235;-58
2022/12/17 21:47:23;;;;;;;45.83;26.37;;;-5.90;99.90;;;;;;5071806;28;20227;-59
2022/12/17 21:49:50;;;;;;;48.87;25.10;;;-5.90;99.90;;;;;;5071753;28;20572;-56
2022/12/17 21:52:16;;;;;;;40.30;24.30;;;-6.00;99.90;;;;;;5071780;28;20209;-58
2022/12/17 21:54:45;;;;;;;44.23;24.80;;;-5.90;99.90;;;;;;5071593;28;20606;-58
2022/12/17 21:57:12;;;;;;;44.37;25.23;;;-5.90;99.90;;;;;;5071025;28;20204;-57
2022/12/17 21:59:40;;;;;;;46.17;24.30;;;-5.80;99.90;;;;;;5071890;28;20255;-58
2022/12/17 22:02:09;;;;;;;43.60;25.23;;;-5.80;99.90;;;;;;5071908;28;20205;-58
2022/12/17 22:04:36;;;;;;;39.23;23.97;;;-5.70;99.90;;;;;;5071424;28;20260;-58
2022/12/17 22:07:02;;;;;;;45.30;24.67;;;-5.60;99.90;;;;;;5071169;28;20208;-57
2022/12/17 22:09:29;;;;;;;48.40;27.93;;;-5.50;99.90;;;;;;5071637;28;20216;-59
2022/12/17 22:14:38;;;;;;;48.33;26.27;;;-5.60;99.90;;;;;;5071152;28;20231;-59
2022/12/17 22:17:04;;;;;;;50.77;27.63;;;-5.60;99.90;;;;;;5071394;28;20232;-58
2022/12/17 22:19:33;;;;;;;44.37;25.50;;;-5.60;99.90;;;;;;5071334;28;20207;-58
2022/12/17 22:21:59;;;;;;;43.23;25.90;;;-5.60;99.90;;;;;;5071378;28;20587;-58
2022/12/17 22:24:26;;;;;;;43.00;25.33;;;-5.50;99.90;;;;;;5070990;28;20696;-56
2022/12/17 22:26:58;;;;;;;45.00;25.93;;;-5.50;99.90;;;;;;5071090;28;20209;-57
2022/12/17 22:34:57;;;;;;;58.43;29.70;;;-5.70;99.90;;;;;;5074133;28;20687;-56
2022/12/17 22:37:24;;;;;;;55.33;28.43;;;-5.70;99.90;;;;;;5074639;28;20533;-57
2022/12/17 22:39:51;;;;;;;47.20;26.67;;;-5.70;99.90;;;;;;5074799;28;20201;-58
2022/12/17 22:45:03;;;;;;;48.47;25.93;;;-5.70;99.90;;;;;;5073891;28;20231;-57
2022/12/17 22:47:30;;;;;;;46.07;24.60;;;-5.70;99.90;;;;;;5074579;28;20207;-57
2022/12/17 22:49:57;;;;;;;45.03;24.53;;;-5.60;99.90;;;;;;5074994;28;20212;-57
2022/12/17 22:52:23;;;;;;;48.00;25.90;;;-5.60;99.90;;;;;;5074747;28;20208;-57
2022/12/17 22:54:50;;;;;;;54.07;26.53;;;-5.60;99.90;;;;;;5074404;28;20217;-59
2022/12/17 22:57:17;;;;;;;42.37;23.43;;;-5.60;99.90;;;;;;5073883;28;20228;-57
2022/12/17 22:59:44;;;;;;;50.13;25.73;;;-5.60;99.90;;;;;;5074655;28;20212;-57
2022/12/17 23:02:12;;;;;;;47.10;26.27;;;-5.60;99.90;;;;;;5074493;28;20217;-58
2022/12/17 23:04:39;;;;;;;44.53;24.87;;;-5.70;99.90;;;;;;5074028;28;20231;-58
2022/12/17 23:07:05;;;;;;;45.47;24.87;;;-5.70;99.90;;;;;;5073496;28;20205;-57
2022/12/17 23:09:32;;;;;;;39.83;23.27;;;-5.80;99.90;;;;;;5074232;28;20208;-57
2022/12/17 23:12:49;;;;;;;41.13;24.60;;;-5.80;99.90;;;;;;5074001;28;20842;-57
2022/12/17 23:14:46;;;;;;;42.37;23.50;;;-5.90;99.90;;;;;;5074028;28;20312;-57
2022/12/17 23:17:14;;;;;;;42.23;25.07;;;-5.90;99.90;;;;;;5073582;28;20205;-58
2022/12/17 23:19:41;;;;;;;44.10;25.67;;;-5.90;99.90;;;;;;5073803;28;20703;-56
2022/12/17 23:22:08;;;;;;;52.10;27.17;;;-6.00;99.90;;;;;;5073984;28;20215;-57
2022/12/17 23:24:34;;;;;;;47.90;24.93;;;-6.10;99.90;;;;;;5073678;28;20228;-58
2022/12/17 23:27:01;;;;;;;44.03;24.93;;;-6.30;99.90;;;;;;5073613;28;20201;-57
2022/12/17 23:29:28;;;;;;;49.77;24.43;;;-6.40;99.90;;;;;;5073971;28;20205;-57
2022/12/17 23:31:54;;;;;;;48.20;25.33;;;-6.40;99.90;;;;;;5074275;28;20216;-58
2022/12/17 23:34:23;;;;;;;50.37;27.47;;;-6.50;99.90;;;;;;5073514;28;20232;-58
2022/12/17 23:36:50;;;;;;;48.10;26.57;;;-6.60;99.90;;;;;;5073167;28;20243;-56
2022/12/17 23:39:17;;;;;;;53.30;28.10;;;-6.60;99.90;;;;;;5073388;28;20200;-57
2022/12/17 23:41:44;;;;;;;60.13;27.80;;;-6.60;99.90;;;;;;5073627;28;20212;-57
2022/12/17 23:44:11;;;;;;;54.43;26.50;;;-6.50;99.90;;;;;;5073058;28;20615;-56
2022/12/17 23:46:37;;;;;;;48.17;25.83;;;-6.50;99.90;;;;;;5072857;28;20212;-57
2022/12/17 23:49:05;;;;;;;42.57;23.90;;;-6.40;99.90;;;;;;5073363;28;20228;-56
2022/12/17 23:51:33;;;;;;;42.30;24.73;;;-6.40;99.90;;;;;;5073722;28;20243;-56
2022/12/17 23:54:00;;;;;;;41.77;23.70;;;-6.50;99.90;;;;;;5072994;28;20712;-58
2022/12/17 23:56:28;;;;;;;44.73;24.30;;;-6.50;99.90;;;;;;5072834;28;20220;-57
2022/12/17 23:58:57;;;;;;;47.07;23.73;;;-6.40;99.90;;;;;;5073014;28;20672;-56
